createdAt,value
2018-09-30T00:00:15.160Z,6.28
2018-09-30T00:01:15.329Z,6.24
2018-09-30T00:02:15.508Z,6.36
2018-09-30T00:03:15.673Z,6.35
2018-09-30T00:04:15.852Z,6.31
2018-09-30T00:05:16.035Z,6.33
2018-09-30T00:06:16.194Z,6.22
2018-09-30T00:07:16.370Z,6.33
2018-09-30T00:08:16.542Z,6.31
2018-09-30T00:09:16.715Z,6.33
2018-09-30T00:10:16.883Z,6.27
2018-09-30T00:11:17.060Z,6.28
2018-09-30T00:12:17.234Z,6.28
2018-09-30T00:13:17.418Z,6.14
2018-09-30T00:14:17.588Z,6.22
2018-09-30T00:15:17.743Z,6.20
2018-09-30T00:16:17.920Z,6.01
2018-09-30T00:17:18.104Z,6.11
2018-09-30T00:18:18.274Z,6.14
2018-09-30T00:19:18.437Z,6.17
2018-09-30T00:20:18.613Z,6.26
2018-09-30T00:21:18.784Z,6.16
2018-09-30T00:22:18.962Z,6.19
2018-09-30T00:23:19.139Z,6.17
2018-09-30T00:24:19.319Z,6.17
2018-09-30T00:25:19.485Z,6.07
2018-09-30T00:26:19.650Z,6.17
2018-09-30T00:27:19.832Z,6.07
2018-09-30T00:28:20.005Z,6.20
2018-09-30T00:29:20.181Z,6.14
2018-09-30T00:30:20.351Z,6.16
2018-09-30T00:31:20.521Z,6.09
2018-09-30T00:32:20.696Z,6.01
2018-09-30T00:33:20.870Z,6.05
2018-09-30T00:34:21.044Z,6.02
2018-09-30T00:35:21.217Z,6.08
2018-09-30T00:36:21.426Z,5.93
2018-09-30T00:37:21.566Z,6.09
2018-09-30T00:38:21.756Z,6.09
2018-09-30T00:39:21.914Z,6.08
2018-09-30T00:40:22.095Z,6.08
2018-09-30T00:41:22.259Z,6.01
2018-09-30T00:42:22.435Z,5.91
2018-09-30T00:43:22.604Z,6.08
2018-09-30T00:44:22.776Z,5.91
2018-09-30T00:45:22.962Z,6.01
2018-09-30T00:46:23.110Z,5.83
2018-09-30T00:47:23.278Z,5.86
2018-09-30T00:48:23.457Z,6.01
2018-09-30T00:49:23.629Z,5.86
2018-09-30T00:50:23.802Z,5.86
2018-09-30T00:51:23.973Z,5.73
2018-09-30T00:52:24.149Z,5.71
2018-09-30T00:53:24.318Z,5.79
2018-09-30T00:54:24.496Z,5.79
2018-09-30T00:55:24.665Z,5.87
2018-09-30T00:56:24.839Z,5.79
2018-09-30T00:57:25.024Z,5.83
2018-09-30T00:58:25.189Z,5.82
2018-09-30T00:59:25.365Z,5.82
2018-09-30T01:00:25.537Z,5.73
2018-09-30T01:01:25.723Z,5.80
2018-09-30T01:02:25.885Z,5.76
2018-09-30T01:03:26.056Z,5.69
2018-09-30T01:04:26.229Z,5.79
2018-09-30T01:05:26.400Z,5.73
2018-09-30T01:06:26.573Z,5.76
2018-09-30T01:07:26.749Z,5.73
2018-09-30T01:08:26.922Z,5.80
2018-09-30T01:09:27.095Z,5.64
2018-09-30T01:10:27.271Z,5.72
2018-09-30T01:11:27.443Z,5.59
2018-09-30T01:12:27.620Z,5.61
2018-09-30T01:13:27.793Z,5.39
2018-09-30T01:14:27.961Z,5.48
2018-09-30T01:15:28.136Z,5.44
2018-09-30T01:16:28.308Z,5.51
2018-09-30T01:17:28.482Z,5.54
2018-09-30T01:18:28.650Z,5.66
2018-09-30T01:19:28.825Z,5.64
2018-09-30T01:20:28.998Z,5.61
2018-09-30T01:21:29.179Z,5.61
2018-09-30T01:22:29.346Z,5.59
2018-09-30T01:23:29.520Z,5.59
2018-09-30T01:24:29.690Z,5.50
2018-09-30T01:25:29.863Z,5.56
2018-09-30T01:26:30.039Z,5.53
2018-09-30T01:27:30.210Z,5.50
2018-09-30T01:28:30.383Z,5.62
2018-09-30T01:29:30.556Z,5.51
2018-09-30T01:30:30.727Z,5.57
2018-09-30T01:31:30.902Z,5.54
2018-09-30T01:32:31.073Z,5.50
2018-09-30T01:33:31.247Z,5.54
2018-09-30T01:34:31.418Z,5.62
2018-09-30T01:35:31.593Z,5.51
2018-09-30T01:36:31.767Z,5.54
2018-09-30T01:37:31.938Z,5.50
2018-09-30T01:38:32.112Z,5.56
2018-09-30T01:39:32.286Z,5.54
2018-09-30T01:40:32.461Z,5.54
2018-09-30T01:41:32.632Z,5.56
2018-09-30T01:42:32.806Z,5.59
2018-09-30T01:43:32.977Z,5.44
2018-09-30T01:44:33.148Z,5.38
2018-09-30T01:45:33.319Z,5.44
2018-09-30T01:46:33.500Z,5.46
2018-09-30T01:47:33.670Z,5.43
2018-09-30T01:48:33.833Z,5.38
2018-09-30T01:49:34.015Z,5.39
2018-09-30T01:50:34.179Z,5.39
2018-09-30T01:51:34.351Z,5.36
2018-09-30T01:52:34.532Z,5.33
2018-09-30T01:53:34.702Z,5.35
2018-09-30T01:54:34.883Z,5.18
2018-09-30T01:55:35.046Z,5.15
2018-09-30T01:56:35.215Z,5.17
2018-09-30T01:57:35.380Z,5.21
2018-09-30T01:58:35.553Z,5.18
2018-09-30T01:59:35.728Z,5.26
2018-09-30T02:00:35.906Z,5.23
2018-09-30T02:01:36.072Z,5.33
2018-09-30T02:02:36.243Z,5.38
2018-09-30T02:03:36.416Z,5.38
2018-09-30T02:04:36.586Z,5.36
2018-09-30T02:05:36.759Z,5.38
2018-09-30T02:06:36.937Z,5.33
2018-09-30T02:07:37.112Z,5.25
2018-09-30T02:08:37.280Z,5.26
2018-09-30T02:09:37.455Z,5.23
2018-09-30T02:10:37.628Z,5.25
2018-09-30T02:11:37.801Z,5.21
2018-09-30T02:12:37.971Z,5.25
2018-09-30T02:13:38.143Z,5.23
2018-09-30T02:14:38.320Z,5.21
2018-09-30T02:15:38.492Z,5.26
2018-09-30T02:16:38.665Z,5.23
2018-09-30T02:17:38.836Z,5.23
2018-09-30T02:18:39.008Z,5.26
2018-09-30T02:19:39.182Z,5.25
2018-09-30T02:20:39.352Z,5.21
2018-09-30T02:21:39.530Z,5.15
2018-09-30T02:22:39.702Z,5.20
2018-09-30T02:23:39.876Z,5.23
2018-09-30T02:24:40.048Z,5.18
2018-09-30T02:25:40.230Z,5.18
2018-09-30T02:26:40.392Z,5.11
2018-09-30T02:27:40.564Z,5.17
2018-09-30T02:28:40.739Z,5.11
2018-09-30T02:29:40.914Z,5.14
2018-09-30T02:30:41.088Z,5.11
2018-09-30T02:31:41.262Z,5.11
2018-09-30T02:32:41.442Z,5.04
2018-09-30T02:33:41.605Z,5.10
2018-09-30T02:34:41.778Z,4.82
2018-09-30T02:35:41.952Z,4.89
2018-09-30T02:36:42.126Z,4.89
2018-09-30T02:37:42.299Z,4.93
2018-09-30T02:38:42.478Z,4.96
2018-09-30T02:39:42.641Z,4.90
2018-09-30T02:40:42.814Z,4.93
2018-09-30T02:41:42.986Z,4.90
2018-09-30T02:42:43.159Z,4.89
2018-09-30T02:43:43.335Z,4.86
2018-09-30T02:44:43.508Z,4.89
2018-09-30T02:45:43.684Z,4.92
2018-09-30T02:46:43.855Z,4.75
2018-09-30T02:47:44.029Z,4.84
2018-09-30T02:48:44.204Z,4.87
2018-09-30T02:49:44.373Z,4.82
2018-09-30T02:50:44.546Z,4.70
2018-09-30T02:51:44.715Z,4.77
2018-09-30T02:52:44.893Z,4.82
2018-09-30T02:53:45.062Z,4.80
2018-09-30T02:54:45.233Z,4.92
2018-09-30T02:55:45.405Z,4.71
2018-09-30T02:56:45.576Z,4.70
2018-09-30T02:57:45.749Z,4.68
2018-09-30T02:58:45.927Z,4.78
2018-09-30T02:59:46.097Z,4.80
2018-09-30T03:00:46.271Z,4.73
2018-09-30T03:01:46.448Z,4.71
2018-09-30T03:02:46.628Z,4.68
2018-09-30T03:03:46.792Z,4.50
2018-09-30T03:04:46.973Z,4.55
2018-09-30T03:05:47.134Z,4.58
2018-09-30T03:06:47.308Z,4.55
2018-09-30T03:07:47.521Z,4.68
2018-09-30T03:08:47.651Z,4.68
2018-09-30T03:09:47.821Z,4.48
2018-09-30T03:10:47.988Z,4.45
2018-09-30T03:11:48.164Z,4.56
2018-09-30T03:12:48.332Z,4.53
2018-09-30T03:13:48.508Z,4.49
2018-09-30T03:14:48.679Z,4.49
2018-09-30T03:15:48.843Z,4.55
2018-09-30T03:16:49.021Z,4.55
2018-09-30T03:17:49.190Z,4.73
2018-09-30T03:18:49.364Z,4.67
2018-09-30T03:19:49.534Z,4.67
2018-09-30T03:20:49.705Z,4.55
2018-09-30T03:21:49.880Z,4.56
2018-09-30T03:22:50.051Z,4.49
2018-09-30T03:23:50.226Z,4.35
2018-09-30T03:24:50.401Z,4.35
2018-09-30T03:25:50.571Z,4.38
2018-09-30T03:26:50.745Z,4.34
2018-09-30T03:27:50.914Z,4.31
2018-09-30T03:28:51.095Z,4.40
2018-09-30T03:29:51.262Z,4.49
2018-09-30T03:30:51.433Z,4.50
2018-09-30T03:31:51.606Z,4.48
2018-09-30T03:32:51.779Z,4.38
2018-09-30T03:33:51.953Z,4.37
2018-09-30T03:34:52.121Z,4.34
2018-09-30T03:35:52.294Z,4.30
2018-09-30T03:36:52.471Z,4.08
2018-09-30T03:37:52.640Z,4.13
2018-09-30T03:38:52.815Z,4.19
2018-09-30T03:39:52.992Z,4.19
2018-09-30T03:40:53.158Z,4.13
2018-09-30T03:41:53.327Z,4.20
2018-09-30T03:42:53.502Z,4.14
2018-09-30T03:43:53.676Z,4.16
2018-09-30T03:44:53.845Z,4.17
2018-09-30T03:45:54.015Z,4.19
2018-09-30T03:46:54.180Z,4.30
2018-09-30T03:47:54.361Z,4.30
2018-09-30T03:48:54.530Z,4.12
2018-09-30T03:49:54.704Z,4.14
2018-09-30T03:50:54.878Z,4.32
2018-09-30T03:51:55.047Z,4.38
2018-09-30T03:52:55.225Z,4.32
2018-09-30T03:53:55.388Z,4.32
2018-09-30T03:54:55.563Z,4.24
2018-09-30T03:55:55.736Z,4.14
2018-09-30T03:56:55.912Z,4.22
2018-09-30T03:57:56.084Z,4.12
2018-09-30T03:58:56.246Z,4.06
2018-09-30T03:59:56.407Z,4.10
2018-09-30T04:00:56.581Z,4.10
2018-09-30T04:01:56.752Z,4.12
2018-09-30T04:02:56.933Z,4.06
2018-09-30T04:03:57.094Z,4.06
2018-09-30T04:04:57.266Z,4.05
2018-09-30T04:05:57.429Z,3.84
2018-09-30T04:06:57.602Z,3.99
2018-09-30T04:07:57.774Z,3.91
2018-09-30T04:08:57.943Z,3.96
2018-09-30T04:09:58.139Z,4.02
2018-09-30T04:10:58.286Z,3.91
2018-09-30T04:11:58.461Z,3.86
2018-09-30T04:12:58.633Z,3.92
2018-09-30T04:13:58.802Z,3.96
2018-09-30T04:14:58.972Z,3.94
2018-09-30T04:15:59.144Z,3.88
2018-09-30T04:16:59.483Z,3.84
2018-09-30T04:17:59.489Z,3.86
2018-09-30T04:18:59.659Z,3.92
2018-09-30T04:19:59.832Z,3.87
2018-09-30T04:21:00.006Z,3.87
2018-09-30T04:22:00.185Z,3.87
2018-09-30T04:23:00.350Z,3.94
2018-09-30T04:24:00.530Z,3.84
2018-09-30T04:25:00.692Z,3.96
2018-09-30T04:26:00.868Z,3.84
2018-09-30T04:27:01.035Z,3.92
2018-09-30T04:28:01.204Z,3.91
2018-09-30T04:29:01.388Z,3.95
2018-09-30T04:30:01.552Z,4.06
2018-09-30T04:31:01.719Z,4.08
2018-09-30T04:32:01.890Z,3.96
2018-09-30T04:33:02.061Z,3.88
2018-09-30T04:34:02.231Z,3.92
2018-09-30T04:35:02.405Z,4.04
2018-09-30T04:36:02.579Z,4.06
2018-09-30T04:37:02.753Z,4.05
2018-09-30T04:38:02.926Z,4.13
2018-09-30T04:39:03.104Z,4.02
2018-09-30T04:40:03.267Z,4.12
2018-09-30T04:41:03.443Z,4.08
2018-09-30T04:42:03.613Z,4.01
2018-09-30T04:43:03.786Z,4.05
2018-09-30T04:44:03.963Z,4.14
2018-09-30T04:45:04.135Z,4.08
2018-09-30T04:46:04.307Z,3.99
2018-09-30T04:47:04.480Z,4.04
2018-09-30T04:48:04.652Z,4.13
2018-09-30T04:49:04.824Z,4.13
2018-09-30T04:50:05.061Z,4.14
2018-09-30T04:51:05.170Z,4.13
2018-09-30T04:52:05.347Z,4.05
2018-09-30T04:53:05.510Z,3.99
2018-09-30T04:54:05.681Z,4.12
2018-09-30T04:55:05.853Z,4.08
2018-09-30T04:56:06.034Z,4.12
2018-09-30T04:57:06.199Z,4.14
2018-09-30T04:58:06.380Z,4.13
2018-09-30T04:59:06.541Z,4.10
2018-09-30T05:00:06.713Z,3.98
2018-09-30T05:01:06.886Z,3.92
2018-09-30T05:02:07.065Z,3.92
2018-09-30T05:03:07.230Z,3.88
2018-09-30T05:04:07.405Z,3.86
2018-09-30T05:05:07.569Z,3.98
2018-09-30T05:06:07.748Z,3.91
2018-09-30T05:07:07.917Z,3.91
2018-09-30T05:08:08.092Z,3.96
2018-09-30T05:09:08.258Z,4.04
2018-09-30T05:10:08.433Z,4.08
2018-09-30T05:11:08.607Z,4.13
2018-09-30T05:12:08.780Z,4.19
2018-09-30T05:13:08.958Z,4.28
2018-09-30T05:14:09.126Z,4.35
2018-09-30T05:15:09.293Z,4.31
2018-09-30T05:16:09.655Z,4.26
2018-09-30T05:17:09.647Z,4.31
2018-09-30T05:18:09.801Z,4.45
2018-09-30T05:19:09.976Z,4.35
2018-09-30T05:20:10.135Z,4.31
2018-09-30T05:21:10.305Z,4.13
2018-09-30T05:22:10.485Z,4.12
2018-09-30T05:23:10.651Z,4.05
2018-09-30T05:24:10.825Z,4.01
2018-09-30T05:25:11.005Z,4.04
2018-09-30T05:26:11.169Z,4.17
2018-09-30T05:27:11.340Z,4.14
2018-09-30T05:28:11.514Z,4.08
2018-09-30T05:29:11.686Z,4.17
2018-09-30T05:30:11.855Z,3.98
2018-09-30T05:31:12.072Z,3.94
2018-09-30T05:32:12.205Z,3.98
2018-09-30T05:33:12.376Z,3.94
2018-09-30T05:34:12.553Z,3.87
2018-09-30T05:35:12.722Z,3.91
2018-09-30T05:36:12.891Z,3.87
2018-09-30T05:37:13.136Z,3.83
2018-09-30T05:38:13.236Z,3.98
2018-09-30T05:39:13.405Z,3.99
2018-09-30T05:40:13.574Z,3.88
2018-09-30T05:41:13.747Z,3.92
2018-09-30T05:42:13.921Z,3.95
2018-09-30T05:43:14.097Z,3.76
2018-09-30T05:44:14.264Z,3.50
2018-09-30T05:45:14.438Z,3.60
2018-09-30T05:46:14.622Z,3.68
2018-09-30T05:47:14.781Z,3.77
2018-09-30T05:48:14.950Z,3.80
2018-09-30T05:49:15.203Z,3.81
2018-09-30T05:50:15.293Z,3.95
2018-09-30T05:51:15.465Z,4.04
2018-09-30T05:52:15.639Z,4.01
2018-09-30T05:53:15.816Z,4.01
2018-09-30T05:54:15.997Z,4.06
2018-09-30T05:55:16.170Z,4.04
2018-09-30T05:56:16.333Z,3.98
2018-09-30T05:57:16.528Z,3.96
2018-09-30T05:58:16.701Z,3.99
2018-09-30T05:59:16.871Z,3.86
2018-09-30T06:00:17.042Z,3.84
2018-09-30T06:01:17.215Z,3.95
2018-09-30T06:02:17.385Z,3.92
2018-09-30T06:03:17.559Z,4.04
2018-09-30T06:04:17.736Z,4.05
2018-09-30T06:05:17.904Z,4.08
2018-09-30T06:06:18.074Z,4.22
2018-09-30T06:07:18.246Z,4.16
2018-09-30T06:08:18.421Z,4.08
2018-09-30T06:09:18.667Z,4.10
2018-09-30T06:10:18.766Z,3.96
2018-09-30T06:11:18.966Z,3.91
2018-09-30T06:12:19.137Z,3.77
2018-09-30T06:13:19.308Z,3.78
2018-09-30T06:14:19.630Z,3.87
2018-09-30T06:15:19.654Z,3.94
2018-09-30T06:16:19.829Z,3.80
2018-09-30T06:17:19.998Z,3.48
2018-09-30T06:18:20.187Z,3.59
2018-09-30T06:19:20.337Z,3.70
2018-09-30T06:20:20.514Z,3.77
2018-09-30T06:21:20.688Z,3.84
2018-09-30T06:22:20.853Z,3.81
2018-09-30T06:23:21.024Z,3.91
2018-09-30T06:24:21.192Z,3.94
2018-09-30T06:25:21.366Z,3.92
2018-09-30T06:26:21.541Z,3.66
2018-09-30T06:27:21.714Z,3.66
2018-09-30T06:28:21.880Z,3.62
2018-09-30T06:29:22.049Z,3.68
2018-09-30T06:30:22.223Z,3.81
2018-09-30T06:31:22.392Z,3.95
2018-09-30T06:32:22.565Z,4.05
2018-09-30T06:33:22.740Z,4.04
2018-09-30T06:34:22.934Z,4.14
2018-09-30T06:35:23.087Z,4.32
2018-09-30T06:36:23.246Z,4.44
2018-09-30T06:37:23.504Z,4.53
2018-09-30T06:38:23.601Z,4.49
2018-09-30T06:39:23.769Z,4.63
2018-09-30T06:40:24.005Z,4.63
2018-09-30T06:41:24.110Z,4.73
2018-09-30T06:42:24.298Z,4.84
2018-09-30T06:43:24.458Z,4.86
2018-09-30T06:44:24.627Z,4.92
2018-09-30T06:45:24.899Z,4.80
2018-09-30T06:46:24.976Z,4.92
2018-09-30T06:47:25.144Z,4.90
2018-09-30T06:48:25.322Z,4.89
2018-09-30T06:49:25.488Z,4.87
2018-09-30T06:50:25.667Z,4.97
2018-09-30T06:51:25.836Z,5.08
2018-09-30T06:52:26.012Z,5.12
2018-09-30T06:53:26.187Z,5.30
2018-09-30T06:54:26.362Z,5.36
2018-09-30T06:55:26.537Z,5.43
2018-09-30T06:56:26.708Z,5.68
2018-09-30T06:57:26.881Z,5.86
2018-09-30T06:58:27.052Z,5.94
2018-09-30T06:59:27.227Z,6.41
2018-09-30T07:00:27.414Z,6.85
2018-09-30T07:01:27.569Z,7.32
2018-09-30T07:02:27.744Z,7.82
2018-09-30T07:03:29.370Z,8.06
2018-09-30T07:04:28.050Z,8.31
2018-09-30T07:05:28.208Z,8.48
2018-09-30T07:06:28.398Z,8.84
2018-09-30T07:07:28.804Z,9.04
2018-09-30T07:08:28.802Z,9.03
2018-09-30T07:09:28.981Z,8.99
2018-09-30T07:10:29.095Z,9.04
2018-09-30T07:11:29.272Z,9.03
2018-09-30T07:12:29.442Z,9.25
2018-09-30T07:13:29.611Z,9.21
2018-09-30T07:14:29.790Z,9.40
2018-09-30T07:15:29.964Z,9.32
2018-09-30T07:16:30.141Z,9.22
2018-09-30T07:17:30.323Z,9.28
2018-09-30T07:18:30.494Z,8.71
2018-09-30T07:19:30.671Z,8.99
2018-09-30T07:20:30.841Z,9.11
2018-09-30T07:21:31.023Z,8.91
2018-09-30T07:22:31.248Z,9.21
2018-09-30T07:23:31.369Z,9.39
2018-09-30T07:24:31.557Z,9.46
2018-09-30T07:25:31.714Z,8.41
2018-09-30T07:26:31.906Z,9.03
2018-09-30T07:27:32.089Z,8.67
2018-09-30T07:28:32.258Z,8.95
2018-09-30T07:29:32.437Z,8.67
2018-09-30T07:30:32.625Z,8.78
2018-09-30T07:31:32.792Z,8.91
2018-09-30T07:32:32.967Z,9.32
2018-09-30T07:34:33.333Z,9.25
2018-09-30T07:35:33.507Z,9.29
2018-09-30T07:36:33.684Z,9.39
2018-09-30T07:37:33.855Z,9.34
2018-09-30T07:38:34.032Z,9.19
2018-09-30T07:39:34.237Z,9.54
2018-09-30T07:40:34.402Z,9.77
2018-09-30T07:41:34.567Z,10.40
2018-09-30T07:42:34.750Z,10.49
2018-09-30T07:43:34.923Z,10.41
2018-09-30T07:44:35.096Z,10.74
2018-09-30T07:45:35.279Z,10.67
2018-09-30T07:46:35.533Z,10.79
2018-09-30T07:47:35.672Z,10.15
2018-09-30T07:48:35.846Z,10.68
2018-09-30T07:49:36.019Z,10.94
2018-09-30T07:50:36.200Z,11.14
2018-09-30T07:51:36.384Z,11.45
2018-09-30T07:52:36.604Z,11.62
2018-09-30T07:53:36.751Z,11.69
2018-09-30T07:54:36.920Z,12.13
2018-09-30T07:55:37.105Z,12.22
2018-09-30T07:56:37.273Z,12.54
2018-09-30T07:57:37.449Z,12.57
2018-09-30T07:58:37.630Z,12.58
2018-09-30T07:59:37.827Z,12.47
2018-09-30T08:00:37.988Z,12.42
2018-09-30T08:01:38.167Z,12.45
2018-09-30T08:02:38.345Z,12.17
2018-09-30T08:03:38.528Z,12.24
2018-09-30T08:04:38.706Z,12.72
2018-09-30T08:05:38.891Z,12.65
2018-09-30T08:06:39.061Z,11.69
2018-09-30T08:07:39.244Z,11.88
2018-09-30T08:08:39.808Z,12.13
2018-09-30T08:09:39.610Z,12.32
2018-09-30T08:10:39.784Z,12.28
2018-09-30T08:11:39.959Z,11.48
2018-09-30T08:12:40.136Z,11.77
2018-09-30T08:13:40.316Z,12.25
2018-09-30T08:14:40.496Z,12.53
2018-09-30T08:15:40.674Z,12.90
2018-09-30T08:16:40.911Z,12.94
2018-09-30T08:17:41.043Z,13.15
2018-09-30T08:18:41.218Z,13.31
2018-09-30T08:19:41.390Z,13.52
2018-09-30T08:20:41.578Z,13.74
2018-09-30T08:21:41.765Z,13.63
2018-09-30T08:22:41.956Z,14.05
2018-09-30T08:23:42.124Z,13.79
2018-09-30T08:24:42.301Z,14.05
2018-09-30T08:25:42.479Z,13.96
2018-09-30T08:26:42.659Z,14.33
2018-09-30T08:27:42.846Z,14.51
2018-09-30T08:28:43.017Z,14.72
2018-09-30T08:29:43.208Z,15.00
2018-09-30T08:30:43.447Z,15.35
2018-09-30T08:31:43.557Z,15.15
2018-09-30T08:32:43.737Z,15.40
2018-09-30T08:33:43.927Z,15.72
2018-09-30T08:34:44.154Z,15.67
2018-09-30T08:35:44.276Z,15.76
2018-09-30T08:36:44.459Z,16.47
2018-09-30T08:37:44.631Z,16.76
2018-09-30T08:38:45.293Z,16.96
2018-09-30T08:39:45.150Z,17.16
2018-09-30T08:40:45.154Z,17.36
2018-09-30T08:41:45.343Z,17.82
2018-09-30T08:42:45.525Z,17.63
2018-09-30T08:43:45.745Z,18.08
2018-09-30T08:44:45.888Z,17.72
2018-09-30T08:45:46.131Z,17.90
2018-09-30T08:46:46.301Z,17.85
2018-09-30T08:47:46.495Z,18.05
2018-09-30T08:48:46.613Z,18.28
2018-09-30T08:49:46.804Z,18.15
2018-09-30T08:50:46.991Z,18.49
2018-09-30T08:51:47.165Z,18.73
2018-09-30T08:52:47.340Z,18.63
2018-09-30T08:53:47.530Z,18.90
2018-09-30T08:54:47.713Z,18.98
2018-09-30T08:55:47.960Z,18.35
2018-09-30T08:56:48.081Z,18.66
2018-09-30T08:57:48.259Z,19.11
2018-09-30T08:58:48.457Z,19.47
2018-09-30T08:59:48.616Z,18.88
2018-09-30T09:00:48.801Z,19.27
2018-09-30T09:01:48.996Z,19.40
2018-09-30T09:02:49.168Z,19.45
2018-09-30T09:03:49.347Z,19.51
2018-09-30T09:04:49.528Z,19.64
2018-09-30T09:05:49.713Z,19.55
2018-09-30T09:06:49.885Z,19.41
2018-09-30T09:07:50.071Z,19.48
2018-09-30T09:08:50.268Z,19.79
2018-09-30T09:09:50.467Z,20.06
2018-09-30T09:10:50.622Z,20.11
2018-09-30T09:11:50.810Z,20.36
2018-09-30T09:12:50.987Z,20.55
2018-09-30T09:13:51.170Z,21.18
2018-09-30T09:14:51.361Z,21.50
2018-09-30T09:15:51.619Z,21.24
2018-09-30T09:16:51.707Z,21.06
2018-09-30T09:17:51.892Z,21.43
2018-09-30T09:18:52.082Z,21.98
2018-09-30T09:19:52.269Z,22.04
2018-09-30T09:20:52.459Z,22.39
2018-09-30T09:21:52.643Z,22.35
2018-09-30T09:22:52.882Z,22.00
2018-09-30T09:23:53.003Z,22.22
2018-09-30T09:24:53.191Z,22.50
2018-09-30T09:25:53.379Z,22.65
2018-09-30T09:26:53.562Z,22.50
2018-09-30T09:27:53.751Z,22.50
2018-09-30T09:28:53.932Z,22.45
2018-09-30T09:29:54.241Z,22.70
2018-09-30T09:30:54.399Z,22.81
2018-09-30T09:31:54.545Z,22.78
2018-09-30T09:32:54.789Z,22.81
2018-09-30T09:33:55.023Z,22.80
2018-09-30T09:34:55.236Z,23.46
2018-09-30T09:35:55.305Z,23.23
2018-09-30T09:36:55.482Z,23.13
2018-09-30T09:37:55.624Z,23.31
2018-09-30T09:38:55.800Z,23.02
2018-09-30T09:39:55.994Z,23.36
2018-09-30T09:40:56.173Z,23.28
2018-09-30T09:41:56.347Z,23.41
2018-09-30T09:42:56.544Z,23.25
2018-09-30T09:43:56.736Z,23.32
2018-09-30T09:44:56.916Z,23.08
2018-09-30T09:45:57.108Z,21.27
2018-09-30T09:46:57.303Z,21.57
2018-09-30T09:47:57.478Z,21.80
2018-09-30T09:48:57.667Z,22.36
2018-09-30T09:49:57.862Z,22.91
2018-09-30T09:50:58.049Z,23.09
2018-09-30T09:51:58.229Z,22.94
2018-09-30T09:52:58.411Z,22.68
2018-09-30T09:53:58.611Z,22.36
2018-09-30T09:54:58.786Z,22.14
2018-09-30T09:55:58.976Z,21.03
2018-09-30T09:56:59.167Z,20.25
2018-09-30T09:57:59.347Z,20.25
2018-09-30T09:58:59.711Z,19.64
2018-09-30T09:59:59.721Z,19.77
2018-09-30T10:00:59.915Z,20.18
2018-09-30T10:02:00.108Z,20.74
2018-09-30T10:03:00.276Z,21.21
2018-09-30T10:04:00.460Z,21.58
2018-09-30T10:05:00.672Z,22.13
2018-09-30T10:06:00.836Z,22.33
2018-09-30T10:07:01.023Z,22.84
2018-09-30T10:08:01.203Z,23.10
2018-09-30T10:09:01.384Z,22.73
2018-09-30T10:10:01.571Z,21.43
2018-09-30T10:11:01.756Z,21.93
2018-09-30T10:12:01.944Z,22.26
2018-09-30T10:13:02.161Z,21.20
2018-09-30T10:14:02.315Z,22.07
2018-09-30T10:15:02.496Z,21.96
2018-09-30T10:16:02.686Z,22.39
2018-09-30T10:17:02.867Z,22.28
2018-09-30T10:18:03.061Z,22.48
2018-09-30T10:19:03.245Z,22.65
2018-09-30T10:20:03.448Z,22.73
2018-09-30T10:21:03.628Z,22.62
2018-09-30T10:22:03.814Z,21.51
2018-09-30T10:23:03.984Z,22.26
2018-09-30T10:24:04.157Z,22.94
2018-09-30T10:25:04.351Z,23.24
2018-09-30T10:26:04.535Z,23.44
2018-09-30T10:27:04.718Z,23.31
2018-09-30T10:28:04.905Z,22.60
2018-09-30T10:29:05.113Z,22.90
2018-09-30T10:30:05.293Z,22.66
2018-09-30T10:31:05.479Z,23.66
2018-09-30T10:32:05.672Z,23.73
2018-09-30T10:33:05.859Z,24.08
2018-09-30T10:34:06.090Z,23.69
2018-09-30T10:35:06.233Z,23.20
2018-09-30T10:36:06.409Z,22.78
2018-09-30T10:37:06.604Z,22.60
2018-09-30T10:38:06.785Z,22.47
2018-09-30T10:39:07.093Z,22.96
2018-09-30T10:40:07.146Z,23.20
2018-09-30T10:41:07.333Z,23.24
2018-09-30T10:42:07.543Z,22.63
2018-09-30T10:43:07.712Z,22.88
2018-09-30T10:44:07.914Z,23.34
2018-09-30T10:45:08.069Z,23.87
2018-09-30T10:46:08.267Z,24.21
2018-09-30T10:47:08.472Z,24.84
2018-09-30T10:48:08.649Z,24.54
2018-09-30T10:49:08.841Z,23.27
2018-09-30T10:50:09.021Z,23.84
2018-09-30T10:51:09.208Z,23.91
2018-09-30T10:52:09.394Z,23.98
2018-09-30T10:53:09.580Z,23.99
2018-09-30T10:54:09.770Z,24.36
2018-09-30T10:55:09.967Z,24.51
2018-09-30T10:56:10.159Z,24.70
2018-09-30T10:57:10.344Z,25.32
2018-09-30T10:58:10.524Z,25.72
2018-09-30T10:59:10.713Z,25.63
2018-09-30T11:00:10.899Z,25.38
2018-09-30T11:01:11.105Z,25.31
2018-09-30T11:02:11.273Z,24.92
2018-09-30T11:03:11.463Z,24.95
2018-09-30T11:04:11.647Z,24.30
2018-09-30T11:05:11.835Z,24.06
2018-09-30T11:06:12.011Z,24.47
2018-09-30T11:07:12.208Z,24.85
2018-09-30T11:08:12.391Z,25.38
2018-09-30T11:09:12.580Z,25.04
2018-09-30T11:10:12.867Z,23.87
2018-09-30T11:11:12.957Z,23.80
2018-09-30T11:12:13.129Z,23.91
2018-09-30T11:13:13.337Z,24.36
2018-09-30T11:14:13.509Z,24.47
2018-09-30T11:15:13.701Z,24.54
2018-09-30T11:16:13.974Z,23.92
2018-09-30T11:17:14.070Z,24.61
2018-09-30T11:18:14.266Z,24.74
2018-09-30T11:19:14.439Z,24.84
2018-09-30T11:20:14.611Z,24.92
2018-09-30T11:21:14.827Z,25.25
2018-09-30T11:22:15.040Z,25.29
2018-09-30T11:23:15.158Z,24.99
2018-09-30T11:24:15.355Z,25.17
2018-09-30T11:25:15.533Z,24.69
2018-09-30T11:26:15.720Z,24.28
2018-09-30T11:27:15.901Z,23.76
2018-09-30T11:28:16.092Z,23.80
2018-09-30T11:29:16.297Z,23.62
2018-09-30T11:30:16.468Z,23.47
2018-09-30T11:31:16.656Z,23.25
2018-09-30T11:32:16.855Z,23.13
2018-09-30T11:33:17.037Z,22.26
2018-09-30T11:34:17.220Z,22.00
2018-09-30T11:35:17.410Z,21.55
2018-09-30T11:36:18.374Z,21.35
2018-09-30T11:37:17.778Z,21.43
2018-09-30T11:38:17.960Z,21.22
2018-09-30T11:39:18.146Z,21.15
2018-09-30T11:40:18.326Z,21.15
2018-09-30T11:41:18.512Z,21.09
2018-09-30T11:42:18.702Z,20.92
2018-09-30T11:43:18.891Z,20.82
2018-09-30T11:44:19.068Z,19.44
2018-09-30T11:45:19.256Z,18.31
2018-09-30T11:46:19.448Z,18.13
2018-09-30T11:47:19.626Z,18.65
2018-09-30T11:48:19.813Z,19.07
2018-09-30T11:49:19.995Z,19.39
2018-09-30T11:50:20.177Z,19.66
2018-09-30T11:51:20.346Z,19.55
2018-09-30T11:52:20.537Z,19.73
2018-09-30T11:53:20.745Z,19.73
2018-09-30T11:54:20.895Z,19.95
2018-09-30T11:55:21.091Z,20.07
2018-09-30T11:56:21.258Z,20.11
2018-09-30T11:57:21.443Z,20.19
2018-09-30T11:58:21.647Z,20.25
2018-09-30T11:59:21.800Z,20.34
2018-09-30T12:00:21.985Z,19.76
2018-09-30T12:01:22.251Z,19.47
2018-09-30T12:02:22.385Z,19.70
2018-09-30T12:03:22.506Z,19.73
2018-09-30T12:04:22.690Z,19.84
2018-09-30T12:05:22.875Z,19.94
2018-09-30T12:06:23.062Z,20.13
2018-09-30T12:07:23.230Z,20.11
2018-09-30T12:08:23.413Z,20.04
2018-09-30T12:09:23.597Z,20.16
2018-09-30T12:10:23.779Z,20.13
2018-09-30T12:11:23.960Z,20.04
2018-09-30T12:12:24.189Z,20.22
2018-09-30T12:13:24.330Z,20.28
2018-09-30T12:14:24.512Z,20.21
2018-09-30T12:15:24.695Z,20.10
2018-09-30T12:16:24.877Z,20.10
2018-09-30T12:17:25.075Z,19.91
2018-09-30T12:18:25.265Z,19.76
2018-09-30T12:19:25.449Z,19.77
2018-09-30T12:20:25.638Z,19.81
2018-09-30T12:21:25.807Z,19.74
2018-09-30T12:22:25.985Z,19.81
2018-09-30T12:23:26.181Z,19.77
2018-09-30T12:24:26.371Z,19.70
2018-09-30T12:25:26.554Z,19.64
2018-09-30T12:26:26.736Z,19.44
2018-09-30T12:27:26.912Z,19.64
2018-09-30T12:28:27.097Z,19.71
2018-09-30T12:29:27.279Z,19.81
2018-09-30T12:30:27.471Z,19.99
2018-09-30T12:31:27.647Z,20.07
2018-09-30T12:32:27.849Z,19.94
2018-09-30T12:33:28.013Z,20.09
2018-09-30T12:34:28.189Z,20.13
2018-09-30T12:35:28.372Z,20.07
2018-09-30T12:36:28.549Z,20.13
2018-09-30T12:37:28.736Z,20.07
2018-09-30T12:38:28.916Z,20.14
2018-09-30T12:39:29.102Z,20.14
2018-09-30T12:40:29.286Z,20.06
2018-09-30T12:41:29.466Z,20.03
2018-09-30T12:42:29.639Z,20.09
2018-09-30T12:43:29.828Z,20.04
2018-09-30T12:44:30.005Z,20.03
2018-09-30T12:45:30.198Z,20.22
2018-09-30T12:46:30.392Z,20.25
2018-09-30T12:47:30.575Z,20.41
2018-09-30T12:48:30.759Z,20.47
2018-09-30T12:49:30.942Z,20.52
2018-09-30T12:50:31.130Z,20.21
2018-09-30T12:51:31.306Z,20.10
2018-09-30T12:52:31.495Z,19.88
2018-09-30T12:53:31.671Z,19.96
2018-09-30T12:54:31.868Z,20.06
2018-09-30T12:55:32.036Z,20.16
2018-09-30T12:56:32.219Z,20.18
2018-09-30T12:57:32.420Z,20.14
2018-09-30T12:58:32.589Z,20.13
2018-09-30T12:59:32.772Z,20.21
2018-09-30T13:00:32.952Z,20.43
2018-09-30T13:01:33.131Z,20.50
2018-09-30T13:02:33.319Z,20.50
2018-09-30T13:03:33.499Z,20.58
2018-09-30T13:04:33.675Z,20.51
2018-09-30T13:05:33.880Z,20.50
2018-09-30T13:06:34.043Z,20.37
2018-09-30T13:07:34.224Z,20.10
2018-09-30T13:08:34.407Z,20.31
2018-09-30T13:09:34.586Z,20.43
2018-09-30T13:10:34.775Z,20.22